Kurashiki, Japan
Current Conditions -  °F | °C
As of 9:00 PM on Thursday 29 Jan 2015 (Local Time) from RJOB Reporting Station
Snow Showers Snow Showers  
Wind Chill: 36°   Ceiling: 5000
Heat Index: 36°   Visibility: 6mi
Dew Point: 25°   Wind: 2mph
Humidity: 65%   Direction: 360°N
Pressure: 30.24"   Gusts: NA
Location:  34.61°N, 133.77°E
Report Text: RJOB 291200Z 36002KT 9999 -SHSN FEW025 SCT040 BKN050 02/M04 Q1024
Loading
Personal Weather Stations






























Interactive Weather Map New forecast layout! Learn more

10-Day Weather Forecast

Advertisements
Track Severe Weather on mobile